TAF Text Data
IDs:
Format:
Raw Decoded Include METAR

Data at: 1711 UTC 20 Sep 2018

TAF for:KSNS (Salinas Muni, CA, US) issued at 1125 UTC 20 Sep 2018
Text:KSNS 201125Z 2012/2112 12004KT P6SM SKC
Forecast period:1200 to 1900 UTC 20 September 2018
Forecast type:FROM: standard forecast or significant change
Winds:from the ESE (120 degrees) at 5 MPH (4 knots; 2.1 m/s)
Visibility:6 or more sm (10+ km)
Ceiling:at least 12,000 feet AGL
Clouds:clear skies
Text:FM201900 29010KT P6SM SKC
Forecast period:1900 UTC 20 September 2018 to 0300 UTC 21 September 2018
Forecast type:FROM: standard forecast or significant change
Winds:from the WNW (290 degrees) at 12 MPH (10 knots; 5.1 m/s)
Visibility:6 or more sm (10+ km)
Ceiling:at least 12,000 feet AGL
Clouds:clear skies
Text:FM210300 32005KT P6SM SKC
Forecast period:0300 to 0800 UTC 21 September 2018
Forecast type:FROM: standard forecast or significant change
Winds:from the NW (320 degrees) at 6 MPH (5 knots; 2.6 m/s)
Visibility:6 or more sm (10+ km)
Ceiling:at least 12,000 feet AGL
Clouds:clear skies
Text:FM210800 VRB03KT P6SM SKC
Forecast period:0800 to 1200 UTC 21 September 2018
Forecast type:FROM: standard forecast or significant change
Winds:variable direction winds at 3 MPH (3 knots; 1.5 m/s)
Visibility:6 or more sm (10+ km)
Ceiling:at least 12,000 feet AGL
Clouds:clear skies